createdAt,value
2019-04-20T08:23:17.224Z,21.43
2019-04-20T08:25:38.794Z,21.13
2019-04-20T08:27:57.477Z,21.15
2019-04-20T08:31:00.609Z,21.35
2019-04-20T08:33:47.183Z,21.48
2019-04-20T08:36:17.141Z,21.46
2019-04-20T08:39:10.580Z,21.80
2019-04-20T08:41:15.589Z,21.80
2019-04-20T08:44:09.432Z,21.80
2019-04-20T08:46:20.387Z,21.96
2019-04-20T08:48:50.967Z,21.93
2019-04-20T08:51:22.606Z,21.84
2019-04-20T08:53:51.759Z,21.90
2019-04-20T08:56:19.713Z,22.02
2019-04-20T08:58:38.931Z,22.18
2019-04-20T09:01:14.021Z,22.30
2019-04-20T09:03:51.260Z,22.00
2019-04-20T09:06:29.429Z,22.01
2019-04-20T09:08:50.837Z,22.24
2019-04-20T09:11:31.196Z,22.43
2019-04-20T09:13:51.891Z,22.49
2019-04-20T09:16:19.936Z,22.58
2019-04-20T09:18:56.694Z,22.70
2019-04-20T09:21:35.605Z,23.06
2019-04-20T09:24:21.762Z,23.13
2019-04-20T09:26:48.969Z,23.16
2019-04-20T09:29:14.878Z,23.24
2019-04-20T09:31:47.001Z,23.61
2019-04-20T09:34:39.340Z,23.86
2019-04-20T09:37:14.153Z,23.94
2019-04-20T09:40:02.439Z,24.10
2019-04-20T09:42:15.984Z,24.33
2019-04-20T09:44:50.961Z,25.41
2019-04-20T09:47:25.899Z,28.66
2019-04-20T09:50:02.715Z,28.94
2019-04-20T09:52:54.753Z,27.21
2019-04-20T09:55:18.460Z,25.73
2019-04-20T09:57:54.084Z,25.97
2019-04-20T10:00:26.906Z,25.57
2019-04-20T10:02:42.992Z,23.48
2019-04-20T10:05:15.674Z,23.21
2019-04-20T10:07:55.985Z,23.03
2019-04-20T10:10:29.718Z,23.09
2019-04-20T10:12:52.203Z,23.09
2019-04-20T10:15:26.321Z,24.60
2019-04-20T10:17:54.157Z,29.23
2019-04-20T10:20:29.665Z,31.79
2019-04-20T10:22:54.560Z,34.43
2019-04-20T10:25:24.571Z,35.52
2019-04-20T10:27:55.710Z,33.16
2019-04-20T10:30:26.323Z,30.73
2019-04-20T10:32:55.854Z,29.59
2019-04-20T10:35:25.567Z,29.24
2019-04-20T10:37:57.589Z,28.66
2019-04-20T10:40:38.100Z,28.19
2019-04-20T10:43:09.936Z,27.77
2019-04-20T10:45:39.405Z,27.46
2019-04-20T10:48:08.985Z,27.23
2019-04-20T10:50:38.974Z,27.05
2019-04-20T10:53:09.930Z,26.93
2019-04-20T10:55:39.776Z,26.81
2019-04-20T10:58:11.459Z,26.73
2019-04-20T11:00:46.124Z,26.64
2019-04-20T11:03:19.717Z,26.58
2019-04-20T11:05:49.070Z,26.52
2019-04-20T11:08:24.472Z,26.47
2019-04-20T11:11:07.352Z,26.46
2019-04-20T11:13:29.650Z,26.47
2019-04-20T11:16:00.115Z,26.51
2019-04-20T11:18:31.446Z,26.60
2019-04-20T11:21:03.519Z,26.73
2019-04-20T11:23:34.120Z,26.92
2019-04-20T11:26:06.302Z,27.13
2019-04-20T11:28:35.642Z,27.43
2019-04-20T11:31:10.238Z,27.80
2019-04-20T11:33:40.399Z,28.23
2019-04-20T11:36:09.648Z,28.62
2019-04-20T11:38:38.855Z,29.01
2019-04-20T11:41:16.544Z,29.32
2019-04-20T11:43:42.084Z,29.63
2019-04-20T11:46:12.431Z,29.91
2019-04-20T11:48:47.385Z,30.20
2019-04-20T11:51:23.354Z,30.48
2019-04-20T11:53:52.668Z,30.66
2019-04-20T11:56:28.019Z,30.83
2019-04-20T11:58:53.630Z,30.97
2019-04-20T12:01:49.325Z,31.13
2019-04-20T12:04:30.353Z,31.32
2019-04-20T12:06:50.974Z,31.54
2019-04-20T12:09:24.672Z,31.70
2019-04-20T12:12:08.226Z,31.89
2019-04-20T12:14:28.488Z,32.02
2019-04-20T12:16:59.510Z,32.12
2019-04-20T12:19:31.082Z,32.27
2019-04-20T12:22:00.722Z,32.33
2019-04-20T12:24:31.237Z,32.27
2019-04-20T12:27:00.877Z,32.08
2019-04-20T12:29:44.157Z,31.76
2019-04-20T12:32:14.640Z,31.40
2019-04-20T12:34:45.411Z,31.11
2019-04-20T12:37:16.193Z,30.93
2019-04-20T12:39:46.891Z,30.83
2019-04-20T12:42:19.019Z,30.71
2019-04-20T12:44:48.433Z,30.40
2019-04-20T12:47:19.610Z,29.86
2019-04-20T12:50:03.442Z,29.31
2019-04-20T12:52:34.565Z,28.80
2019-04-20T12:55:06.735Z,28.30
2019-04-20T12:57:36.525Z,27.91
2019-04-20T13:00:13.601Z,27.57
2019-04-20T13:02:43.257Z,27.29
2019-04-20T13:05:13.505Z,27.02
2019-04-20T13:07:49.179Z,26.80
2019-04-20T13:10:16.163Z,26.60
2019-04-20T13:12:54.321Z,26.42
2019-04-20T13:15:36.432Z,26.28
2019-04-20T13:18:07.453Z,26.14
2019-04-20T13:20:37.098Z,26.02
2019-04-20T13:23:09.260Z,25.91
2019-04-20T13:25:39.341Z,25.80
2019-04-20T13:28:08.720Z,25.70
2019-04-20T13:30:39.640Z,25.60
2019-04-20T13:33:10.185Z,25.47
2019-04-20T13:35:43.873Z,25.34
2019-04-20T13:38:14.135Z,25.26
2019-04-20T13:40:44.027Z,25.17
2019-04-20T13:43:14.086Z,25.10
2019-04-20T13:45:44.660Z,25.02
2019-04-20T13:48:17.177Z,24.94
2019-04-20T13:50:51.891Z,24.87
2019-04-20T13:53:27.230Z,24.80
2019-04-20T13:55:59.104Z,24.73
2019-04-20T13:58:43.688Z,24.67
2019-04-20T14:01:27.043Z,24.62
2019-04-20T14:04:12.713Z,24.56
2019-04-20T14:06:45.636Z,24.51
2019-04-20T14:09:17.200Z,24.45
2019-04-20T14:11:47.492Z,24.38
2019-04-20T14:14:17.378Z,24.31
2019-04-20T14:16:47.395Z,24.24
2019-04-20T14:19:16.805Z,24.18
2019-04-20T14:21:46.349Z,24.16
2019-04-20T14:24:17.105Z,24.13
2019-04-20T14:26:46.879Z,24.10
2019-04-20T14:29:17.209Z,24.09
2019-04-20T14:31:48.009Z,24.06
2019-04-20T14:34:20.598Z,24.05
2019-04-20T14:36:51.051Z,24.03
2019-04-20T14:39:20.444Z,24.02
2019-04-20T14:41:54.118Z,24.02
2019-04-20T14:44:23.829Z,24.01
2019-04-20T14:47:11.978Z,23.97
2019-04-20T14:49:36.810Z,23.94
2019-04-20T14:52:08.228Z,23.90
2019-04-20T14:54:37.645Z,23.89
2019-04-20T14:57:07.726Z,23.87
2019-04-20T14:59:38.859Z,23.84
2019-04-20T15:02:10.477Z,23.85
2019-04-20T15:04:41.250Z,23.85
2019-04-20T15:07:10.885Z,23.84
2019-04-20T15:09:44.773Z,23.84
2019-04-20T15:12:14.808Z,23.82
2019-04-20T15:14:44.969Z,23.80
2019-04-20T15:17:17.140Z,23.79
2019-04-20T15:19:49.481Z,23.79
2019-04-20T15:22:35.980Z,23.78
2019-04-20T15:25:07.620Z,23.76
2019-04-20T15:27:37.377Z,23.74
2019-04-20T15:30:08.654Z,23.73
2019-04-20T15:32:38.964Z,23.75
2019-04-20T15:35:09.033Z,23.75
2019-04-20T15:37:41.245Z,23.77
2019-04-20T15:40:14.997Z,23.75
2019-04-20T15:42:54.851Z,23.73
2019-04-20T15:45:21.234Z,23.75
2019-04-20T15:47:52.139Z,23.83
2019-04-20T15:50:22.200Z,23.98
2019-04-20T15:52:54.492Z,24.19
2019-04-20T15:55:27.402Z,24.33
2019-04-20T15:57:55.566Z,24.38
2019-04-20T16:00:24.880Z,24.33
2019-04-20T16:02:59.232Z,24.26
2019-04-20T16:05:42.964Z,24.20
2019-04-20T16:08:18.373Z,24.13
2019-04-20T16:10:48.768Z,24.06
2019-04-20T16:13:26.313Z,24.03
2019-04-20T16:15:49.749Z,24.05
2019-04-20T16:18:20.840Z,24.05
2019-04-20T16:20:59.391Z,24.09
2019-04-20T16:23:25.010Z,24.12
2019-04-20T16:26:13.509Z,24.15
2019-04-20T16:28:43.786Z,24.18
2019-04-20T16:31:15.273Z,24.20
2019-04-20T16:33:46.464Z,24.21
2019-04-20T16:36:16.583Z,24.19
2019-04-20T16:38:45.715Z,24.20
2019-04-20T16:41:14.867Z,24.20
2019-04-20T16:43:46.190Z,24.20
2019-04-20T16:46:18.749Z,24.20
2019-04-20T16:48:48.446Z,24.19
2019-04-20T16:51:20.760Z,24.18
2019-04-20T16:53:51.896Z,24.17
2019-04-20T16:56:22.393Z,24.16
2019-04-20T16:58:57.285Z,24.16
2019-04-20T17:01:23.929Z,24.14
2019-04-20T17:04:04.808Z,24.13
2019-04-20T17:06:27.767Z,24.12
2019-04-20T17:08:58.723Z,24.09
2019-04-20T17:11:29.876Z,24.08
2019-04-20T17:14:01.420Z,24.06
2019-04-20T17:16:31.543Z,24.04
2019-04-20T17:19:01.803Z,24.02
2019-04-20T17:21:32.575Z,23.99
2019-04-20T17:24:03.556Z,23.99
2019-04-20T17:26:36.738Z,23.95
2019-04-20T17:29:08.274Z,23.95
2019-04-20T17:31:39.806Z,23.92
2019-04-20T17:34:28.372Z,23.90
2019-04-20T17:36:44.317Z,23.88
2019-04-20T17:39:15.670Z,23.86
2019-04-20T17:42:00.565Z,23.83
2019-04-20T17:44:31.434Z,23.82
2019-04-20T17:47:00.490Z,23.80
2019-04-20T17:49:34.134Z,23.78
2019-04-20T17:52:24.048Z,23.77
2019-04-20T17:57:33.258Z,23.72
2019-04-20T18:00:12.138Z,23.69
2019-04-20T18:02:59.318Z,23.67
2019-04-20T18:05:34.121Z,23.65
2019-04-20T18:08:10.598Z,23.62
2019-04-20T18:10:35.440Z,23.61
2019-04-20T18:12:53.438Z,23.60
2019-04-20T18:15:36.029Z,23.57
2019-04-20T18:18:18.791Z,23.55
2019-04-20T18:20:35.188Z,23.53
2019-04-20T18:23:06.922Z,23.52
2019-04-20T18:26:01.528Z,23.50
2019-04-20T18:28:22.669Z,23.48
2019-04-20T18:30:50.296Z,23.47
2019-04-20T18:33:13.700Z,23.46
2019-04-20T18:35:46.019Z,23.43
2019-04-20T18:38:16.589Z,23.43
2019-04-20T18:40:53.488Z,23.41
2019-04-20T18:43:21.816Z,23.39
2019-04-20T18:46:10.974Z,23.39
2019-04-20T18:48:37.915Z,23.36
2019-04-20T18:50:50.455Z,23.35
2019-04-20T18:53:28.656Z,23.33
2019-04-20T18:55:55.534Z,23.31
2019-04-20T18:58:22.936Z,23.30
2019-04-20T19:00:53.702Z,23.28
2019-04-20T19:03:31.857Z,23.26
2019-04-20T19:05:53.998Z,23.25
2019-04-20T19:08:31.237Z,23.23
2019-04-20T19:11:01.531Z,23.22
2019-04-20T19:13:36.889Z,23.20
2019-04-20T19:16:22.203Z,23.19
2019-04-20T19:18:58.520Z,23.19
2019-04-20T19:21:15.213Z,23.18
2019-04-20T19:23:53.444Z,23.15
2019-04-20T19:26:20.591Z,23.14
2019-04-20T19:28:52.515Z,23.13
2019-04-20T19:31:35.197Z,23.12
2019-04-20T19:34:09.044Z,23.10
2019-04-20T19:36:28.778Z,23.09
2019-04-20T19:39:07.035Z,23.08
2019-04-20T19:41:35.378Z,23.08
2019-04-20T19:44:04.086Z,23.07
2019-04-20T19:46:50.645Z,23.06
2019-04-20T19:49:04.156Z,23.04
2019-04-20T19:51:49.277Z,23.03
2019-04-20T19:54:18.006Z,23.03
2019-04-20T19:56:42.524Z,23.01
2019-04-20T19:59:10.986Z,23.01
2019-04-20T20:01:29.527Z,22.99
2019-04-20T20:04:02.851Z,22.99
2019-04-20T20:06:39.180Z,22.97
2019-04-20T20:09:05.839Z,22.96
2019-04-20T20:11:36.936Z,22.94
2019-04-20T20:14:06.104Z,22.94
2019-04-20T20:16:52.679Z,22.92
2019-04-20T20:19:12.101Z,22.90
2019-04-20T20:21:54.442Z,22.91
2019-04-20T20:24:10.764Z,22.89
2019-04-20T20:26:43.823Z,22.87
2019-04-20T20:29:19.353Z,22.87
2019-04-20T20:31:52.813Z,22.86
2019-04-20T20:34:22.188Z,22.84
2019-04-20T20:36:47.252Z,22.83
2019-04-20T20:39:22.493Z,22.82
2019-04-20T20:41:56.347Z,22.81
2019-04-20T20:44:28.703Z,22.79
2019-04-20T20:47:00.753Z,22.78
2019-04-20T20:49:37.087Z,22.77
2019-04-20T20:52:06.759Z,22.76
2019-04-20T20:54:36.698Z,22.75
2019-04-20T20:56:59.690Z,22.73
2019-04-20T20:59:35.404Z,22.72
2019-04-20T21:02:00.982Z,22.70
2019-04-20T21:04:23.814Z,22.69
2019-04-20T21:06:52.970Z,22.68
2019-04-20T21:09:25.366Z,22.67
2019-04-20T21:12:00.608Z,22.64
2019-04-20T21:14:27.912Z,22.64
2019-04-20T21:17:03.060Z,22.63
2019-04-20T21:31:43.364Z,21.92
2019-04-20T21:34:14.955Z,20.31
2019-04-20T21:36:41.321Z,18.96
2019-04-20T21:39:22.063Z,17.90
2019-04-20T21:41:51.313Z,17.10
2019-04-20T21:44:19.076Z,16.49
2019-04-20T21:46:48.768Z,15.96
2019-04-20T21:49:34.718Z,15.52
2019-04-20T21:51:54.465Z,15.19
2019-04-20T21:54:16.211Z,14.94
2019-04-20T21:56:53.914Z,14.75
2019-04-20T21:59:24.436Z,14.58
2019-04-20T22:01:55.088Z,14.43
2019-04-20T22:04:22.471Z,14.31
2019-04-20T22:06:50.135Z,14.23
2019-04-20T22:09:20.340Z,14.16
2019-04-20T22:11:49.838Z,14.11
2019-04-20T22:14:23.894Z,14.04
2019-04-20T22:16:53.335Z,13.99
2019-04-20T22:19:33.454Z,13.95
2019-04-20T22:22:03.759Z,13.92
2019-04-20T22:24:38.127Z,13.87
2019-04-20T22:27:04.907Z,13.76
2019-04-20T22:29:25.932Z,13.72
2019-04-20T22:32:00.524Z,13.66
2019-04-20T22:34:28.130Z,13.58
2019-04-20T22:36:58.026Z,13.51
2019-04-20T22:39:39.377Z,13.43
2019-04-20T22:42:08.467Z,13.36
2019-04-20T22:44:34.818Z,13.30
2019-04-20T22:47:12.504Z,13.24
2019-04-20T22:49:48.606Z,13.14
2019-04-20T22:52:26.730Z,13.11
2019-04-20T22:54:54.579Z,13.12
2019-04-20T22:57:28.003Z,13.13
2019-04-20T22:59:50.598Z,13.13
2019-04-20T23:02:11.720Z,13.14
2019-04-20T23:04:42.559Z,13.12
2019-04-20T23:07:12.797Z,13.10
2019-04-20T23:09:48.643Z,13.09
2019-04-20T23:12:17.790Z,13.06
2019-04-20T23:14:44.736Z,13.02
2019-04-20T23:17:18.489Z,12.98
2019-04-20T23:19:49.445Z,12.93
2019-04-20T23:22:16.077Z,12.92
2019-04-20T23:24:47.139Z,12.86
2019-04-20T23:27:21.956Z,12.83
2019-04-20T23:29:49.069Z,12.79
2019-04-20T23:32:19.918Z,12.76
2019-04-20T23:35:00.191Z,12.75
2019-04-20T23:37:27.540Z,12.73
2019-04-20T23:39:52.779Z,12.68
2019-04-20T23:42:24.116Z,12.63
2019-04-20T23:44:58.746Z,12.56
2019-04-20T23:47:30.181Z,12.50
2019-04-20T23:50:20.836Z,12.43
2019-04-20T23:52:54.120Z,12.38
2019-04-20T23:55:09.817Z,12.33
2019-04-20T23:57:37.909Z,12.29
